Last 30 Days

Stanford Met Tower

Daily Data | America/Los_Angeles
as of 6/12/21 3:49 PM PDT
Date Daily Max Temp (°F) Time of Max Temp Daily Min Temp (°F) Time of Min Temp Daily Rain (In) Monthly Rain (In) Seasonal Rainfall (In) Daily Max Wind (mph) Time of Max Wind Max Wind Dir (°) Dew Pt (°F) Max RH (%) Min RH (%) Daily ETo (in) Daily Solar Rad (Cal/cm2) PM2.5 Daily Max (ug/m3) Time of Max PM2.5 Max Pressure (mb) (mb) Time of Max Press Min pressure (mb) (mb) Time of Min Press Max Temp Inversion (°F) Time of Max Temp Inversion Min Temp Inversion (°F) Time of Min Temp Inversion HDDs (°F) CDDs (°F) GDDs (DL) Seas GDDs (DL) Chilling <=45F (hrs) Bat Volt Min Day (V)
6/11/21 74.0 1516 42.6 0540 0.00 0.00 7.38 20.5 1647 NW | 318 45.9 85 37 0.210 708 1.5 0100 1,024.0 0101 1,018.0 1537 3.3 2325 -10.8 1224 7.1 2.2 11.4 620 4.0 12.2
6/10/21 70.2 1420 42.4 0532 0.00 0.00 7.38 20.6 1551 WNW | 292 43.6 95 34 0.204 730 2.0 0100 1,028.0 0621 1,023.0 1728 6.0 0508 -10.3 1351 9.2 0.6 7.9 608 3.7 12.2
6/9/21 65.8 1354 42.2 0602 0.00 0.00 7.38 26.1 1541 WNW | 289 44.7 93 44 0.189 724 3.2 0100 1,028.0 0046 1,022.0 1233 6.6 0542 -8.7 1145 9.5 0.0 6.6 600 1.9 12.2
6/8/21 66.8 1403 46.4 0413 0.00 0.00 7.38 23.3 1533 NNW | 331 44.8 92 42 0.199 734 5.2 0100 1,023.0 2248 1,018.0 0242 4.5 0434 -9.4 1113 7.9 0.0 7.4 594 0.0 12.2
6/7/21 68.9 1126 45.7 0617 0.00 0.00 7.38 27.9 1358 NW | 309 45.3 91 39 0.193 714 13.3 0100 1,018.0 0055 1,014.0 1045 5.4 0515 -9.2 1154 7.9 0.2 7.6 586 0.0 12.2
6/6/21 78.4 1522 48.1 0535 0.00 0.00 7.38 18.8 1440 SSW | 195 48.0 92 28 0.212 714 20.8 0100 1,015.0 0053 1,010.0 1547 4.1 0011 -10.3 1254 5.8 2.9 12.2 579 0.0 12.2
6/5/21 82.1 1610 47.8 0551 0.00 0.00 7.38 12.5 1704 NE | 42 51.5 94 35 0.208 700 14.5 0100 1,017.0 0235 1,011.0 1648 3.3 2219 -11.2 1147 5.2 4.3 14.2 567 0.0 12.2
6/4/21 77.1 1606 51.6 0607 0.00 0.00 7.38 16.6 1533 N | 350 52.9 96 38 0.200 701 13.3 0100 1,017.0 0834 1,014.0 1522 3.6 0524 -11.4 1400 4.6 2.4 12.9 552 0.0 12.2
6/3/21 80.2 1753 54.7 0040 0.00 0.00 7.38 14.6 1744 N | 349 55.2 92 34 0.200 679 2.8 0100 1,015.0 0059 1,010.0 1602 3.5 2355 -11.4 1308 3.8 3.4 14.6 540 0.0 12.2
6/2/21 69.6 1704 54.5 2329 0.00 0.00 7.38 14.3 1549 NNE | 32 54.5 92 61 0.169 628 7.3 0100 1,017.0 0802 1,012.0 1525 1.5 2323 -11.4 1212 4.9 0.7 10.9 525 0.0 12.2
6/1/21 74.8 1333 51.3 0554 0.00 0.00 7.38 15.3 1538 NNE | 28 56.6 96 56 0.190 692 22.0 0100 1,017.0 0759 1,014.0 1533 4.5 0111 -11.1 1335 4.8 2.4 12.6 514 0.0 12.2
5/31/21 82.1 1346 48.6 0550 0.00 0.00 7.38 13.8 1500 N | 355 55.0 96 44 0.215 696 24.3 0100 1,016.0 0017 1,011.0 1529 4.0 0003 -11.1 1343 4.9 5.5 15.6 501 0.0 12.2
5/30/21 82.5 1408 46.1 0611 0.00 0.00 7.38 10.8 1518 N | 7 52.3 96 42 0.207 699 9.0 0100 1,017.0 0118 1,010.0 1514 3.0 2348 -11.0 1246 6.5 4.0 13.1 486 0.0 12.2
5/29/21 66.6 1556 45.0 0528 0.00 0.00 7.38 20.4 1625 S | 187 48.5 97 56 0.165 644 13.3 0100 1,019.0 0704 1,014.0 1449 4.3 0501 -9.2 1100 9.3 0.1 6.5 473 0.0 12.2
5/28/21 77.9 1544 50.7 0339 0.00 0.00 7.38 16.0 1558 SSW | 192 51.2 96 35 0.195 694 1.0 0100 1,021.0 0101 1,015.0 1545 5.0 0123 -10.7 1349 5.8 1.9 11.1 466 0.0 12.2
5/27/21 73.8 1340 41.2 0537 0.00 0.00 7.38 23.2 1504 NW | 323 49.6 95 42 0.198 709 7.5 0100 1,024.0 0611 1,019.0 1445 5.4 0641 -10.0 1153 7.2 1.6 10.8 455 3.7 12.2
5/26/21 77.4 1615 43.5 0556 0.00 0.00 7.38 14.1 1515 NNW | 348 47.6 92 35 0.208 720 13.3 0100 1,023.0 0044 1,017.0 1535 2.7 2346 -11.2 1232 8.3 2.8 10.7 444 1.9 12.2
5/25/21 69.4 1326 47.4 0059 0.00 0.00 7.38 20.3 1559 NW | 322 47.6 94 46 0.193 709 4.7 0100 1,023.0 0741 1,019.0 1830 4.9 2243 -9.6 1229 7.3 0.6 8.6 434 0.0 12.2
5/24/21 76.8 1555 45.2 0407 0.00 0.00 7.38 20.0 1741 NNW | 336 50.4 96 36 0.178 678 3.8 0100 1,024.0 0808 1,019.0 1543 4.0 0024 -10.9 1420 7.1 1.8 10.2 425 0.0 12.2
5/23/21 71.3 1429 43.1 0554 0.00 0.00 7.38 20.2 1610 NW | 322 46.2 96 40 0.190 697 12.5 0100 1,024.0 0751 1,021.0 1506 4.5 0542 -10.9 1213 8.8 0.7 7.7 415 1.7 12.2
5/22/21 74.1 1516 41.8 0600 0.00 0.00 7.38 17.2 1710 WNW | 301 43.7 93 26 0.203 701 12.0 0100 1,023.0 0043 1,018.0 1457 3.6 0435 -10.8 1208 8.7 2.0 9.5 407 2.9 12.2
5/21/21 69.5 1449 38.8 0605 0.00 0.00 7.38 19.8 1419 SSE | 155 40.0 89 27 0.196 708 9.3 0100 1,020.0 2333 1,015.0 1523 3.5 0301 -9.9 1309 10.2 0.4 7.1 398 4.8 12.3
5/20/21 62.3 1641 43.2 0553 0.00 0.00 7.38 28.7 1454 NW | 306 39.2 85 39 0.187 714 5.8 0100 1,021.0 0756 1,018.0 1810 4.7 0546 -9.8 1123 10.8 0.0 4.9 391 0.5 12.2
5/19/21 63.2 1241 45.9 0559 0.00 0.00 7.38 32.1 1317 WNW | 293 41.6 86 43 0.181 700 7.3 0100 1,021.0 0144 1,017.0 1430 4.3 0627 -8.8 1205 9.9 0.0 5.3 386 0.0 12.2
5/18/21 73.9 1449 42.6 0540 0.00 0.00 7.38 21.8 1558 WNW | 302 42.8 96 22 0.211 705 4.3 0100 1,023.0 0718 1,018.0 1502 4.0 2242 -10.0 1218 8.4 1.6 9.5 380 3.0 12.2
5/17/21 72.0 1442 48.4 0640 0.00 0.00 7.38 17.7 1151 SW | 232 48.1 91 41 0.176 664 1.2 0100 1,022.0 0048 1,018.0 1455 3.7 0034 -9.4 1446 7.9 0.4 7.5 371 0.0 12.2
5/16/21 67.6 1453 50.6 0447 0.00 0.00 7.38 18.2 2330 S | 189 49.6 88 57 0.165 633 5.2 0100 1,019.0 0058 1,015.0 1528 0.4 0351 -8.9 1316 7.7 0.1 7.4 364 0.0 12.2
5/15/21 63.7 1550 51.2 0450 0.00 0.00 7.38 20.1 1307 SW | 228 48.4 87 61 0.134 530 5.5 0100 1,017.0 0101 1,013.0 1622 0.3 2109 -8.2 1211 9.2 0.0 5.8 356 0.0 12.3
5/14/21 71.2 1617 50.7 0004 0.00 0.00 7.38 18.8 2029 S | 171 49.3 89 47 0.182 667 5.2 0100 1,019.0 0116 1,014.0 1731 0.8 0005 -10.9 1458 7.1 0.7 8.6 350 0.0 12.2
5/13/21 68.0 1602 51.8 2209 0.00 0.00 7.38 15.0 1556 NE | 35 51.9 94 55 0.171 652 9.5 0100 1,021.0 0804 1,016.0 1549 1.4 2159 -11.2 1441 6.2 0.2 9.1 342 0.0 12.2
Max 82.5 - 54.7 - 0.00 0.00 - 32.1 - - 56.6 97 61 0.215 734 24.3 - 1,028.0 - 1,023.0 - 6.6 - -8.2 - 10.8 5.5 15.6 - 4.8 12.3
Avg - - - - - 0.00 - - - - 48.2 - - - - - - 1,020.5 - 1,015.8 - - - - - - - 9.6 - 0.9 -
Min 62.3 - 38.8 - 0.00 0.00 - 10.8 - - 39.2 85 22 0.134 530 1.0 - 1,015.0 - 1,010.0 - 0.3 - -11.4 - 3.8 0.0 4.9 - 0.0 12.2
Total - - - - - - - - - - - - - - - - - - - - - - - - - - - 287.0 - 28.1 -